Terminal Aerodrome Forecast
Issued by NWS Wichita, KS

Home | Current Version | Previous Version | Text Only | Print | Product List | Glossary On
Versions: 1 2 3 4 5 6 7 8 9 10 11 12 13 14 15 16 17 18 19 20 21
766
FTUS43 KICT 281128 AAA
TAFICT
TAF AMD
KICT 281128Z 2811/2912 18013KT P6SM BKN020 OVC300 WS015/18045KT
     FM281300 19018G26KT P6SM -RA SCT080
     FM281500 19020G30KT P6SM SKC
     FM290300 17015KT P6SM SKC=

USA.gov is the U.S. government's official web portal to all federal, state and local government web resources and services.